CheckWX is a tool to help pilots better visualize weather data.  It is not intended as a substitute for an official pre-flight weather briefing.

23:35:08 UTC

KOQN METAR
Brandywine Regional Airport Airport
West Chester, Pennsylvania, USA
Current

20 mins ago

KOQN 102315Z AUTO 30008G14KT 5SM -DZ SCT009 BKN027 OVC034 22/21 A2965 RMK AO2 P0001
Observed
Jul-10 @ 23:15 UTC
Wind
  • 300° at 8 KTS
  • Gusting to 14 KTS
Visibility
5 SM
Flight Rules
MVFR
Conditions
Light Drizzle
Cloud Levels
  • Scattered at 900' AGL
  • Broken at 2,700' AGL
  • Overcast at 3,400' AGL
Temperature
22°C / 72°F
Dewpoint
21°C / 70°F
Humidity
94%
Altimeter
29.65" Hg
Pressure
1004.02 hPa
Current Rain
0.01"
Previous

40 mins ago

KOQN 102255Z AUTO 32008KT 10SM DZ BKN011 BKN017 OVC030 22/21 A2965 RMK AO2 P0001
Observed
Jul-10 @ 22:55 UTC
Wind
  • 320° at 8 KTS
Visibility
10 SM
Flight Rules
MVFR
Conditions
Drizzle
Cloud Levels
  • Broken at 1,100' AGL
  • Broken at 1,700' AGL
  • Overcast at 3,000' AGL
Temperature
22°C / 72°F
Dewpoint
21°C / 70°F
Humidity
94%
Altimeter
29.65" Hg
Pressure
1004.02 hPa
Current Rain
0.01"
Previous

60 mins ago

KOQN 102235Z AUTO 30008KT 10SM RA OVC011 22/21 A2966 RMK AO2 P0001
Observed
Jul-10 @ 22:35 UTC
Wind
  • 300° at 8 KTS
Visibility
10 SM
Flight Rules
MVFR
Conditions
Rain
Cloud Levels
  • Overcast at 1,100' AGL
Temperature
22°C / 72°F
Dewpoint
21°C / 70°F
Humidity
94%
Altimeter
29.66" Hg
Pressure
1004.42 hPa
Current Rain
0.01"